sensor_id;sensor_type;location;lat;lon;timestamp;pressure;altitude;pressure_sealevel;temperature;humidity
5877;BME280;2964;42.144;24.730;2023-02-19T00:00:54;144392.75;;;11.30;51.33
5877;BME280;2964;42.144;24.730;2023-02-19T00:03:21;144392.75;;;11.30;50.82
5877;BME280;2964;42.144;24.730;2023-02-19T00:05:48;144340.00;;;11.09;51.16
5877;BME280;2964;42.144;24.730;2023-02-19T00:08:14;144287.22;;;10.87;51.52
5877;BME280;2964;42.144;24.730;2023-02-19T00:10:42;144311.06;;;10.97;51.71
5877;BME280;2964;42.144;24.730;2023-02-19T00:13:09;144208.03;;;10.55;53.24
5877;BME280;2964;42.144;24.730;2023-02-19T00:15:36;144260.81;;;10.76;52.30
5877;BME280;2964;42.144;24.730;2023-02-19T00:18:03;144216.84;;;10.58;52.98
5877;BME280;2964;42.144;24.730;2023-02-19T00:20:29;144172.91;;;10.40;53.51
5877;BME280;2964;42.144;24.730;2023-02-19T00:22:56;144226.94;;;10.62;53.57
5877;BME280;2964;42.144;24.730;2023-02-19T00:25:23;144142.72;;;10.28;53.18
5877;BME280;2964;42.144;24.730;2023-02-19T00:27:51;144159.09;;;10.35;53.70
5877;BME280;2964;42.144;24.730;2023-02-19T00:30:17;144236.97;;;10.67;52.47
5877;BME280;2964;42.144;24.730;2023-02-19T00:32:49;144097.50;;;10.10;54.65
5877;BME280;2964;42.144;24.730;2023-02-19T00:35:16;144169.16;;;10.39;53.57
5877;BME280;2964;42.144;24.730;2023-02-19T00:37:43;144089.97;;;10.07;54.48
5877;BME280;2964;42.144;24.730;2023-02-19T00:40:10;144008.38;;;9.73;55.05
5877;BME280;2964;42.144;24.730;2023-02-19T00:42:36;143950.63;;;9.50;55.43
5877;BME280;2964;42.144;24.730;2023-02-19T00:45:05;144038.50;;;9.85;54.41
5877;BME280;2964;42.144;24.730;2023-02-19T00:47:32;143945.59;;;9.47;56.76
5877;BME280;2964;42.144;24.730;2023-02-19T00:49:58;143925.53;;;9.39;57.77
5877;BME280;2964;42.144;24.730;2023-02-19T00:52:25;143933.03;;;9.42;57.36
5877;BME280;2964;42.144;24.730;2023-02-19T00:54:52;143839.00;;;9.04;58.11
5877;BME280;2964;42.144;24.730;2023-02-19T00:57:18;143842.72;;;9.05;59.79
5877;BME280;2964;42.144;24.730;2023-02-19T00:59:45;143867.81;;;9.16;58.99
5877;BME280;2964;42.144;24.730;2023-02-19T01:02:13;143767.47;;;8.75;60.25
5877;BME280;2964;42.144;24.730;2023-02-19T01:04:40;143822.66;;;8.97;60.35
5877;BME280;2964;42.144;24.730;2023-02-19T01:07:06;143842.72;;;9.05;59.09
5877;BME280;2964;42.144;24.730;2023-02-19T01:09:33;143877.84;;;9.20;59.02
5877;BME280;2964;42.144;24.730;2023-02-19T01:12:00;143828.91;;;9.00;59.97
5877;BME280;2964;42.144;24.730;2023-02-19T01:14:26;143786.28;;;8.82;59.55
5877;BME280;2964;42.144;24.730;2023-02-19T01:16:53;143751.16;;;8.68;60.43
5877;BME280;2964;42.144;24.730;2023-02-19T01:19:21;143727.34;;;8.58;61.55
5877;BME280;2964;42.144;24.730;2023-02-19T01:21:48;143692.22;;;8.44;62.47
5877;BME280;2964;42.144;24.730;2023-02-19T01:24:14;143801.31;;;8.88;60.39
5877;BME280;2964;42.144;24.730;2023-02-19T01:26:41;143909.22;;;9.33;58.31
5877;BME280;2964;42.144;24.730;2023-02-19T01:29:08;143808.88;;;8.92;59.95
5877;BME280;2964;42.144;24.730;2023-02-19T01:31:35;143761.19;;;8.72;61.52
5877;BME280;2964;42.144;24.730;2023-02-19T01:34:02;143748.66;;;8.67;61.46
5877;BME280;2964;42.144;24.730;2023-02-19T01:36:32;143743.63;;;8.65;61.48
5877;BME280;2964;42.144;24.730;2023-02-19T01:38:59;143797.56;;;8.87;61.08
5877;BME280;2964;42.144;24.730;2023-02-19T01:41:28;143803.84;;;8.89;60.78
5877;BME280;2964;42.144;24.730;2023-02-19T01:43:58;143832.69;;;9.01;59.64
5877;BME280;2964;42.144;24.730;2023-02-19T01:46:26;143815.13;;;8.94;60.32
5877;BME280;2964;42.144;24.730;2023-02-19T01:48:53;143786.28;;;8.82;61.19
5877;BME280;2964;42.144;24.730;2023-02-19T01:51:21;143771.25;;;8.76;62.13
5877;BME280;2964;42.144;24.730;2023-02-19T01:53:54;143783.75;;;8.81;62.10
5877;BME280;2964;42.144;24.730;2023-02-19T01:56:22;143867.81;;;9.16;59.66
5877;BME280;2964;42.144;24.730;2023-02-19T01:58:50;143852.78;;;9.10;59.29
5877;BME280;2964;42.144;24.730;2023-02-19T02:01:17;143783.75;;;8.81;60.08
5877;BME280;2964;42.144;24.730;2023-02-19T02:03:46;143830.19;;;9.00;59.69
5877;BME280;2964;42.144;24.730;2023-02-19T02:06:17;143864.03;;;9.14;58.66
5877;BME280;2964;42.144;24.730;2023-02-19T02:08:48;143810.09;;;8.92;59.53
5877;BME280;2964;42.144;24.730;2023-02-19T02:11:34;143807.63;;;8.91;59.79
5877;BME280;2964;42.144;24.730;2023-02-19T02:14:02;143792.53;;;8.85;59.94
5877;BME280;2964;42.144;24.730;2023-02-19T02:16:35;143837.69;;;9.03;59.11
5877;BME280;2964;42.144;24.730;2023-02-19T02:19:16;143822.66;;;8.97;59.30
5877;BME280;2964;42.144;24.730;2023-02-19T02:21:54;143822.66;;;8.97;60.04
5877;BME280;2964;42.144;24.730;2023-02-19T02:24:51;143798.84;;;8.87;60.60
5877;BME280;2964;42.144;24.730;2023-02-19T02:27:34;143828.91;;;9.00;59.30
5877;BME280;2964;42.144;24.730;2023-02-19T02:30:32;143777.50;;;8.79;60.26
5877;BME280;2964;42.144;24.730;2023-02-19T02:33:07;143901.72;;;9.30;58.98
5877;BME280;2964;42.144;24.730;2023-02-19T02:35:41;143813.88;;;8.94;59.72
5877;BME280;2964;42.144;24.730;2023-02-19T02:38:11;143763.72;;;8.73;61.29
5877;BME280;2964;42.144;24.730;2023-02-19T02:40:42;143699.75;;;8.47;63.02
5877;BME280;2964;42.144;24.730;2023-02-19T02:43:09;143739.91;;;8.63;62.37
5877;BME280;2964;42.144;24.730;2023-02-19T02:45:38;143737.38;;;8.62;62.21
5877;BME280;2964;42.144;24.730;2023-02-19T02:48:20;143709.78;;;8.51;61.99
5877;BME280;2964;42.144;24.730;2023-02-19T02:50:51;143739.91;;;8.63;61.82
5877;BME280;2964;42.144;24.730;2023-02-19T02:53:21;143702.25;;;8.48;62.21
5877;BME280;2964;42.144;24.730;2023-02-19T02:56:09;143719.81;;;8.55;61.96
5877;BME280;2964;42.144;24.730;2023-02-19T02:58:38;143707.25;;;8.50;63.62
5877;BME280;2964;42.144;24.730;2023-02-19T03:01:09;143812.63;;;8.93;60.58
5877;BME280;2964;42.144;24.730;2023-02-19T03:03:59;143830.19;;;9.00;60.26
5877;BME280;2964;42.144;24.730;2023-02-19T03:06:29;143847.78;;;9.07;59.65
5877;BME280;2964;42.144;24.730;2023-02-19T03:09:00;143872.84;;;9.18;58.55
5877;BME280;2964;42.144;24.730;2023-02-19T03:11:31;143812.63;;;8.93;60.00
5877;BME280;2964;42.144;24.730;2023-02-19T03:14:20;143785.03;;;8.82;60.76
5877;BME280;2964;42.144;24.730;2023-02-19T03:17:10;143714.78;;;8.53;62.39
5877;BME280;2964;42.144;24.730;2023-02-19T03:19:59;143754.94;;;8.69;61.89
5877;BME280;2964;42.144;24.730;2023-02-19T03:22:30;143732.34;;;8.60;62.80
5877;BME280;2964;42.144;24.730;2023-02-19T03:25:01;143747.38;;;8.66;61.71
5877;BME280;2964;42.144;24.730;2023-02-19T03:27:48;143721.03;;;8.56;62.22
5877;BME280;2964;42.144;24.730;2023-02-19T03:30:18;143657.06;;;8.29;64.86
5877;BME280;2964;42.144;24.730;2023-02-19T03:32:50;143664.59;;;8.32;64.86
5877;BME280;2964;42.144;24.730;2023-02-19T03:35:21;143659.59;;;8.30;64.96
5877;BME280;2964;42.144;24.730;2023-02-19T03:37:52;143692.22;;;8.44;63.68
5877;BME280;2964;42.144;24.730;2023-02-19T03:40:21;143692.22;;;8.44;63.53
5877;BME280;2964;42.144;24.730;2023-02-19T03:42:54;143739.91;;;8.63;63.26
5877;BME280;2964;42.144;24.730;2023-02-19T03:45:37;143729.81;;;8.59;63.16
5877;BME280;2964;42.144;24.730;2023-02-19T03:48:23;143795.06;;;8.86;61.77
5877;BME280;2964;42.144;24.730;2023-02-19T03:50:58;143854.03;;;9.10;59.72
5877;BME280;2964;42.144;24.730;2023-02-19T03:53:31;143723.56;;;8.57;63.17
5877;BME280;2964;42.144;24.730;2023-02-19T03:56:07;143787.53;;;8.83;60.66
5877;BME280;2964;42.144;24.730;2023-02-19T03:58:40;143839.00;;;9.04;60.40
5877;BME280;2964;42.144;24.730;2023-02-19T04:01:13;143861.56;;;9.13;59.17
5877;BME280;2964;42.144;24.730;2023-02-19T04:03:47;143862.81;;;9.14;58.56
5877;BME280;2964;42.144;24.730;2023-02-19T04:06:19;143928.03;;;9.40;58.06
5877;BME280;2964;42.144;24.730;2023-02-19T04:08:53;143939.34;;;9.45;58.01
5877;BME280;2964;42.144;24.730;2023-02-19T04:11:22;143975.75;;;9.60;57.16
5877;BME280;2964;42.144;24.730;2023-02-19T04:13:54;143933.03;;;9.42;57.65
5877;BME280;2964;42.144;24.730;2023-02-19T04:16:25;143906.75;;;9.32;57.88
5877;BME280;2964;42.144;24.730;2023-02-19T04:19:01;143906.75;;;9.32;57.15
5877;BME280;2964;42.144;24.730;2023-02-19T04:21:31;143934.34;;;9.43;57.24
5877;BME280;2964;42.144;24.730;2023-02-19T04:24:02;143971.97;;;9.58;56.68
5877;BME280;2964;42.144;24.730;2023-02-19T04:26:31;143965.72;;;9.56;56.06
5877;BME280;2964;42.144;24.730;2023-02-19T04:28:58;144028.47;;;9.81;55.44
5877;BME280;2964;42.144;24.730;2023-02-19T04:31:27;144023.47;;;9.79;55.37
5877;BME280;2964;42.144;24.730;2023-02-19T04:33:56;144017.16;;;9.77;55.59
5877;BME280;2964;42.144;24.730;2023-02-19T04:36:23;144067.38;;;9.97;55.00
5877;BME280;2964;42.144;24.730;2023-02-19T04:38:50;144012.13;;;9.75;55.32
5877;BME280;2964;42.144;24.730;2023-02-19T04:41:17;143985.78;;;9.64;56.27
5877;BME280;2964;42.144;24.730;2023-02-19T04:43:43;143994.56;;;9.68;56.38
5877;BME280;2964;42.144;24.730;2023-02-19T04:46:10;143933.03;;;9.42;56.67
5877;BME280;2964;42.144;24.730;2023-02-19T04:48:37;143975.75;;;9.60;56.02
5877;BME280;2964;42.144;24.730;2023-02-19T04:51:06;143953.16;;;9.51;56.82
5877;BME280;2964;42.144;24.730;2023-02-19T04:53:33;143938.09;;;9.44;57.14
5877;BME280;2964;42.144;24.730;2023-02-19T04:56:05;143926.78;;;9.40;57.12
5877;BME280;2964;42.144;24.730;2023-02-19T04:58:32;143949.38;;;9.49;56.82
5877;BME280;2964;42.144;24.730;2023-02-19T05:00:59;143950.63;;;9.50;56.31
5877;BME280;2964;42.144;24.730;2023-02-19T05:03:25;143914.22;;;9.35;56.72
5877;BME280;2964;42.144;24.730;2023-02-19T05:05:52;143928.03;;;9.40;57.31
5877;BME280;2964;42.144;24.730;2023-02-19T05:08:20;143930.56;;;9.41;57.19
5877;BME280;2964;42.144;24.730;2023-02-19T05:10:47;143933.03;;;9.42;57.41
5877;BME280;2964;42.144;24.730;2023-02-19T05:13:13;143953.16;;;9.51;56.81
5877;BME280;2964;42.144;24.730;2023-02-19T05:15:40;143987.00;;;9.64;56.75
5877;BME280;2964;42.144;24.730;2023-02-19T05:18:06;144008.38;;;9.73;56.60
5877;BME280;2964;42.144;24.730;2023-02-19T05:20:33;143980.75;;;9.62;56.80
5877;BME280;2964;42.144;24.730;2023-02-19T05:23:00;143976.97;;;9.60;56.06
5877;BME280;2964;42.144;24.730;2023-02-19T05:25:28;144033.50;;;9.83;56.10
5877;BME280;2964;42.144;24.730;2023-02-19T05:27:54;144101.28;;;10.11;54.53
5877;BME280;2964;42.144;24.730;2023-02-19T05:30:41;144122.66;;;10.20;54.22
5877;BME280;2964;42.144;24.730;2023-02-19T05:33:08;144110.06;;;10.15;54.01
5877;BME280;2964;42.144;24.730;2023-02-19T05:35:39;144189.22;;;10.47;52.44
5877;BME280;2964;42.144;24.730;2023-02-19T05:38:08;144252.03;;;10.73;52.00
5877;BME280;2964;42.144;24.730;2023-02-19T05:40:36;144302.28;;;10.93;51.39
5877;BME280;2964;42.144;24.730;2023-02-19T05:43:04;144342.50;;;11.10;50.40
5877;BME280;2964;42.144;24.730;2023-02-19T05:45:31;144420.41;;;11.42;49.60
5877;BME280;2964;42.144;24.730;2023-02-19T05:47:57;144427.94;;;11.45;49.44
5877;BME280;2964;42.144;24.730;2023-02-19T05:50:24;144456.88;;;11.56;48.99
5877;BME280;2964;42.144;24.730;2023-02-19T05:52:51;144513.44;;;11.79;48.14
5877;BME280;2964;42.144;24.730;2023-02-19T05:55:18;144554.97;;;11.96;47.79
5877;BME280;2964;42.144;24.730;2023-02-19T05:57:47;144573.81;;;12.04;47.37
5877;BME280;2964;42.144;24.730;2023-02-19T06:00:16;144645.53;;;12.33;46.67
5877;BME280;2964;42.144;24.730;2023-02-19T06:02:44;144654.31;;;12.37;46.49
5877;BME280;2964;42.144;24.730;2023-02-19T06:05:11;144693.34;;;12.53;46.21
5877;BME280;2964;42.144;24.730;2023-02-19T06:07:38;144719.78;;;12.64;45.81
5877;BME280;2964;42.144;24.730;2023-02-19T06:10:08;144728.56;;;12.67;45.70
5877;BME280;2964;42.144;24.730;2023-02-19T06:12:35;144749.94;;;12.76;45.47
5877;BME280;2964;42.144;24.730;2023-02-19T06:15:03;144780.16;;;12.88;45.02
5877;BME280;2964;42.144;24.730;2023-02-19T06:17:30;144833.03;;;13.10;44.34
5877;BME280;2964;42.144;24.730;2023-02-19T06:19:57;144830.47;;;13.09;44.22
5877;BME280;2964;42.144;24.730;2023-02-19T06:22:23;144877.09;;;13.28;44.06
5877;BME280;2964;42.144;24.730;2023-02-19T06:24:50;144844.31;;;13.14;44.50
5877;BME280;2964;42.144;24.730;2023-02-19T06:27:17;144926.19;;;13.48;43.74
5877;BME280;2964;42.144;24.730;2023-02-19T06:29:44;144911.09;;;13.42;43.72
5877;BME280;2964;42.144;24.730;2023-02-19T06:32:12;144974.06;;;13.67;43.42
5877;BME280;2964;42.144;24.730;2023-02-19T06:34:38;144971.50;;;13.66;43.65
5877;BME280;2964;42.144;24.730;2023-02-19T06:37:05;145047.09;;;13.97;42.61
5877;BME280;2964;42.144;24.730;2023-02-19T06:39:32;145052.13;;;13.99;42.62
5877;BME280;2964;42.144;24.730;2023-02-19T06:41:58;145102.50;;;14.20;42.40
5877;BME280;2964;42.144;24.730;2023-02-19T06:44:25;145226.03;;;14.70;41.46
5877;BME280;2964;42.144;24.730;2023-02-19T06:46:53;145285.28;;;14.94;40.68
5877;BME280;2964;42.144;24.730;2023-02-19T06:49:22;145371.00;;;15.29;40.29
5877;BME280;2964;42.144;24.730;2023-02-19T06:51:48;145473.09;;;15.71;39.34
5877;BME280;2964;42.144;24.730;2023-02-19T06:54:15;145505.94;;;15.84;38.40
5877;BME280;2964;42.144;24.730;2023-02-19T06:56:42;145485.78;;;15.76;38.75
5877;BME280;2964;42.144;24.730;2023-02-19T06:59:10;145586.66;;;16.17;38.49
5877;BME280;2964;42.144;24.730;2023-02-19T07:01:38;145596.75;;;16.21;38.42
5877;BME280;2964;42.144;24.730;2023-02-19T07:04:05;145656.09;;;16.45;37.79
5877;BME280;2964;42.144;24.730;2023-02-19T07:06:34;145624.56;;;16.32;37.76
5877;BME280;2964;42.144;24.730;2023-02-19T07:09:03;145622.00;;;16.31;38.24
5877;BME280;2964;42.144;24.730;2023-02-19T07:11:31;145776.00;;;16.94;36.98
5877;BME280;2964;42.144;24.730;2023-02-19T07:14:00;145806.31;;;17.06;36.91
5877;BME280;2964;42.144;24.730;2023-02-19T07:16:27;145909.81;;;17.48;35.93
5877;BME280;2964;42.144;24.730;2023-02-19T07:18:55;145923.75;;;17.54;36.07
5877;BME280;2964;42.144;24.730;2023-02-19T07:21:22;145776.00;;;16.94;36.13
5877;BME280;2964;42.144;24.730;2023-02-19T07:23:51;145839.13;;;17.20;36.10
5877;BME280;2964;42.144;24.730;2023-02-19T07:26:18;146093.03;;;18.23;34.34
5877;BME280;2964;42.144;24.730;2023-02-19T07:28:46;146014.72;;;17.91;34.41
5877;BME280;2964;42.144;24.730;2023-02-19T07:31:18;146147.38;;;18.45;33.50
5877;BME280;2964;42.144;24.730;2023-02-19T07:33:45;146251.06;;;18.87;33.78
5877;BME280;2964;42.144;24.730;2023-02-19T07:36:13;146168.88;;;18.54;33.72
5877;BME280;2964;42.144;24.730;2023-02-19T07:38:41;146189.06;;;18.62;33.60
5877;BME280;2964;42.144;24.730;2023-02-19T07:41:12;146176.41;;;18.57;33.95
5877;BME280;2964;42.144;24.730;2023-02-19T07:43:39;146130.94;;;18.38;34.23
5877;BME280;2964;42.144;24.730;2023-02-19T07:46:07;145945.19;;;17.63;34.64
5877;BME280;2964;42.144;24.730;2023-02-19T07:48:34;146112.00;;;18.30;34.44
5877;BME280;2964;42.144;24.730;2023-02-19T07:51:02;146228.28;;;18.78;33.51
5877;BME280;2964;42.144;24.730;2023-02-19T07:53:30;146216.88;;;18.73;33.54
5877;BME280;2964;42.144;24.730;2023-02-19T07:55:58;146367.34;;;19.34;32.67
5877;BME280;2964;42.144;24.730;2023-02-19T07:58:27;146305.44;;;19.09;33.71
5877;BME280;2964;42.144;24.730;2023-02-19T08:00:54;146458.41;;;19.71;32.39
5877;BME280;2964;42.144;24.730;2023-02-19T08:03:20;146664.72;;;20.55;31.44
5877;BME280;2964;42.144;24.730;2023-02-19T08:05:46;146597.63;;;20.28;31.62
5877;BME280;2964;42.144;24.730;2023-02-19T08:08:15;146536.91;;;20.03;31.67
5877;BME280;2964;42.144;24.730;2023-02-19T08:10:42;146734.34;;;20.83;30.96
5877;BME280;2964;42.144;24.730;2023-02-19T08:13:28;146849.53;;;21.30;30.58
5877;BME280;2964;42.144;24.730;2023-02-19T08:16:08;146807.78;;;21.13;30.25
5877;BME280;2964;42.144;24.730;2023-02-19T08:18:35;146310.47;;;19.11;30.63
5877;BME280;2964;42.144;24.730;2023-02-19T08:21:02;146595.06;;;20.27;31.79
5877;BME280;2964;42.144;24.730;2023-02-19T08:23:29;146731.81;;;20.82;31.06
5877;BME280;2964;42.144;24.730;2023-02-19T08:25:57;146559.69;;;20.12;31.58
5877;BME280;2964;42.144;24.730;2023-02-19T08:28:26;146797.66;;;21.09;30.42
5877;BME280;2964;42.144;24.730;2023-02-19T08:30:57;147053.53;;;22.12;29.79
5877;BME280;2964;42.144;24.730;2023-02-19T08:33:25;146911.66;;;21.55;29.95
5877;BME280;2964;42.144;24.730;2023-02-19T08:35:51;146830.56;;;21.22;30.04
5877;BME280;2964;42.144;24.730;2023-02-19T08:38:18;146850.84;;;21.30;30.01
5877;BME280;2964;42.144;24.730;2023-02-19T08:40:45;146772.31;;;20.98;30.56
5877;BME280;2964;42.144;24.730;2023-02-19T08:43:14;147030.72;;;22.03;30.22
5877;BME280;2964;42.144;24.730;2023-02-19T08:45:43;147018.03;;;21.98;29.09
5877;BME280;2964;42.144;24.730;2023-02-19T08:48:11;147201.84;;;22.72;28.67
5877;BME280;2964;42.144;24.730;2023-02-19T08:50:39;146871.09;;;21.38;30.11
5877;BME280;2964;42.144;24.730;2023-02-19T08:53:06;146982.56;;;21.84;29.60
5877;BME280;2964;42.144;24.730;2023-02-19T08:55:33;146985.13;;;21.85;29.71
5877;BME280;2964;42.144;24.730;2023-02-19T08:57:59;147024.41;;;22.01;30.11
5877;BME280;2964;42.144;24.730;2023-02-19T09:00:26;147307.09;;;23.15;28.24
5877;BME280;2964;42.144;24.730;2023-02-19T09:02:56;147468.19;;;23.80;27.27
5877;BME280;2964;42.144;24.730;2023-02-19T09:05:23;147874.38;;;25.45;26.14
5877;BME280;2964;42.144;24.730;2023-02-19T09:07:49;148261.94;;;27.01;24.04
5877;BME280;2964;42.144;24.730;2023-02-19T09:10:21;148526.50;;;28.08;22.65
5877;BME280;2964;42.144;24.730;2023-02-19T09:12:48;148310.28;;;27.21;23.17
5877;BME280;2964;42.144;24.730;2023-02-19T09:15:14;148453.97;;;27.79;23.02
5877;BME280;2964;42.144;24.730;2023-02-19T09:17:42;148634.66;;;28.52;22.25
5877;BME280;2964;42.144;24.730;2023-02-19T09:20:10;148848.50;;;29.38;21.52
5877;BME280;2964;42.144;24.730;2023-02-19T09:22:37;148208.56;;;26.80;23.52
5877;BME280;2964;42.144;24.730;2023-02-19T09:25:04;148241.63;;;26.93;24.21
5877;BME280;2964;42.144;24.730;2023-02-19T09:27:31;148372.59;;;27.46;23.39
5877;BME280;2964;42.144;24.730;2023-02-19T09:29:58;148386.56;;;27.51;23.43
5877;BME280;2964;42.144;24.730;2023-02-19T09:32:24;148778.47;;;29.10;21.60
5877;BME280;2964;42.144;24.730;2023-02-19T09:34:51;148544.31;;;28.15;22.06
5877;BME280;2964;42.144;24.730;2023-02-19T09:37:19;148445.06;;;27.75;22.87
5877;BME280;2964;42.144;24.730;2023-02-19T09:39:50;148529.03;;;28.09;22.79
5877;BME280;2964;42.144;24.730;2023-02-19T09:42:19;148314.03;;;27.22;22.94
5877;BME280;2964;42.144;24.730;2023-02-19T09:44:48;147925.16;;;25.65;24.61
5877;BME280;2964;42.144;24.730;2023-02-19T09:47:20;148164.13;;;26.62;23.41
5877;BME280;2964;42.144;24.730;2023-02-19T09:49:49;148218.75;;;26.84;23.59
5877;BME280;2964;42.144;24.730;2023-02-19T09:52:23;148193.31;;;26.73;23.00
5877;BME280;2964;42.144;24.730;2023-02-19T09:54:53;148432.34;;;27.70;22.14
5877;BME280;2964;42.144;24.730;2023-02-19T09:57:25;148261.94;;;27.01;22.86
5877;BME280;2964;42.144;24.730;2023-02-19T09:59:59;148592.63;;;28.35;21.63
5877;BME280;2964;42.144;24.730;2023-02-19T10:02:27;148585.03;;;28.32;21.88
5877;BME280;2964;42.144;24.730;2023-02-19T10:04:56;148278.50;;;27.08;22.96
5877;BME280;2964;42.144;24.730;2023-02-19T10:07:26;148351.00;;;27.37;22.78
5877;BME280;2964;42.144;24.730;2023-02-19T10:09:59;148718.66;;;28.85;21.72
5877;BME280;2964;42.144;24.730;2023-02-19T10:12:28;148677.94;;;28.69;21.79
5877;BME280;2964;42.144;24.730;2023-02-19T10:15:00;147958.22;;;25.78;24.04
5877;BME280;2964;42.144;24.730;2023-02-19T10:17:31;147713.13;;;24.79;25.55
5877;BME280;2964;42.144;24.730;2023-02-19T10:19:59;147347.69;;;23.31;27.71
5877;BME280;2964;42.144;24.730;2023-02-19T10:22:29;147114.38;;;22.37;28.91
5877;BME280;2964;42.144;24.730;2023-02-19T10:24:57;146964.88;;;21.76;29.48
5877;BME280;2964;42.144;24.730;2023-02-19T10:27:26;146935.72;;;21.65;29.69
5877;BME280;2964;42.144;24.730;2023-02-19T10:29:54;146869.84;;;21.38;30.52
5877;BME280;2964;42.144;24.730;2023-02-19T10:32:22;146860.97;;;21.34;30.32
5877;BME280;2964;42.144;24.730;2023-02-19T10:35:07;146819.19;;;21.17;30.52
5877;BME280;2964;42.144;24.730;2023-02-19T10:37:41;146871.09;;;21.38;30.61
5877;BME280;2964;42.144;24.730;2023-02-19T10:40:14;146860.97;;;21.34;30.58
5877;BME280;2964;42.144;24.730;2023-02-19T10:42:45;146833.13;;;21.23;30.41
5877;BME280;2964;42.144;24.730;2023-02-19T10:45:18;146853.34;;;21.31;29.99
5877;BME280;2964;42.144;24.730;2023-02-19T10:47:45;146731.81;;;20.82;30.39
5877;BME280;2964;42.144;24.730;2023-02-19T10:50:20;146738.16;;;20.85;29.96
5877;BME280;2964;42.144;24.730;2023-02-19T10:52:52;146802.72;;;21.11;30.22
5877;BME280;2964;42.144;24.730;2023-02-19T10:55:27;146883.75;;;21.44;29.89
5877;BME280;2964;42.144;24.730;2023-02-19T10:57:54;146841.97;;;21.27;30.16
5877;BME280;2964;42.144;24.730;2023-02-19T11:00:22;146881.19;;;21.43;30.25
5877;BME280;2964;42.144;24.730;2023-02-19T11:03:12;146900.25;;;21.50;29.97
5877;BME280;2964;42.144;24.730;2023-02-19T11:05:49;146893.94;;;21.48;29.94
5877;BME280;2964;42.144;24.730;2023-02-19T11:08:21;146881.19;;;21.43;29.76
5877;BME280;2964;42.144;24.730;2023-02-19T11:10:49;146896.47;;;21.49;29.81
5877;BME280;2964;42.144;24.730;2023-02-19T11:13:20;146840.69;;;21.26;29.77
5877;BME280;2964;42.144;24.730;2023-02-19T11:15:52;146803.97;;;21.11;30.54
5877;BME280;2964;42.144;24.730;2023-02-19T11:18:21;146838.19;;;21.25;30.56
5877;BME280;2964;42.144;24.730;2023-02-19T11:20:52;146764.75;;;20.95;30.47
5877;BME280;2964;42.144;24.730;2023-02-19T11:23:24;146757.13;;;20.92;30.69
5877;BME280;2964;42.144;24.730;2023-02-19T11:25:53;146759.66;;;20.93;30.85
5877;BME280;2964;42.144;24.730;2023-02-19T11:28:31;146758.41;;;20.93;30.80
5877;BME280;2964;42.144;24.730;2023-02-19T11:31:22;146764.75;;;20.95;30.26
5877;BME280;2964;42.144;24.730;2023-02-19T11:33:53;146719.19;;;20.77;30.63
5877;BME280;2964;42.144;24.730;2023-02-19T11:36:27;146741.97;;;20.86;30.63
5877;BME280;2964;42.144;24.730;2023-02-19T11:38:56;146747.03;;;20.88;30.99
5877;BME280;2964;42.144;24.730;2023-02-19T11:41:32;146702.72;;;20.70;30.14
5877;BME280;2964;42.144;24.730;2023-02-19T11:44:12;146698.91;;;20.69;30.74
5877;BME280;2964;42.144;24.730;2023-02-19T11:46:49;146757.13;;;20.92;30.49
5877;BME280;2964;42.144;24.730;2023-02-19T11:49:29;146824.25;;;21.19;30.20
5877;BME280;2964;42.144;24.730;2023-02-19T11:52:13;146833.13;;;21.23;29.94
5877;BME280;2964;42.144;24.730;2023-02-19T11:54:46;146855.91;;;21.32;29.90
5877;BME280;2964;42.144;24.730;2023-02-19T11:57:26;146871.09;;;21.38;30.25
5877;BME280;2964;42.144;24.730;2023-02-19T12:00:02;146887.63;;;21.45;29.70
5877;BME280;2964;42.144;24.730;2023-02-19T12:02:59;146893.94;;;21.48;29.93
5877;BME280;2964;42.144;24.730;2023-02-19T12:08:33;146912.91;;;21.55;29.78
5877;BME280;2964;42.144;24.730;2023-02-19T12:11:13;146881.19;;;21.43;30.27
5877;BME280;2964;42.144;24.730;2023-02-19T12:13:56;146843.22;;;21.27;30.19
5877;BME280;2964;42.144;24.730;2023-02-19T12:16:30;146853.34;;;21.31;30.36
5877;BME280;2964;42.144;24.730;2023-02-19T12:19:22;146844.47;;;21.28;29.83
5877;BME280;2964;42.144;24.730;2023-02-19T12:22:07;146828.06;;;21.21;29.94
5877;BME280;2964;42.144;24.730;2023-02-19T12:24:58;146790.03;;;21.06;30.12
5877;BME280;2964;42.144;24.730;2023-02-19T12:27:40;146790.03;;;21.06;30.29
5877;BME280;2964;42.144;24.730;2023-02-19T12:30:22;146696.41;;;20.68;30.72
5877;BME280;2964;42.144;24.730;2023-02-19T12:33:24;146776.13;;;21.00;30.78
5877;BME280;2964;42.144;24.730;2023-02-19T12:36:01;146772.31;;;20.98;30.59
5877;BME280;2964;42.144;24.730;2023-02-19T12:38:35;146755.88;;;20.92;30.47
5877;BME280;2964;42.144;24.730;2023-02-19T12:41:25;146719.19;;;20.77;30.94
5877;BME280;2964;42.144;24.730;2023-02-19T12:43:58;146764.75;;;20.95;30.86
5877;BME280;2964;42.144;24.730;2023-02-19T12:46:30;146764.75;;;20.95;30.82
5877;BME280;2964;42.144;24.730;2023-02-19T12:49:01;146749.53;;;20.89;30.70
5877;BME280;2964;42.144;24.730;2023-02-19T12:51:38;146739.41;;;20.85;30.49
5877;BME280;2964;42.144;24.730;2023-02-19T12:54:13;146726.75;;;20.80;30.62
5877;BME280;2964;42.144;24.730;2023-02-19T12:56:46;146693.84;;;20.67;31.07
5877;BME280;2964;42.144;24.730;2023-02-19T12:59:21;146672.28;;;20.58;31.00
5877;BME280;2964;42.144;24.730;2023-02-19T13:01:53;146669.75;;;20.57;30.89
5877;BME280;2964;42.144;24.730;2023-02-19T13:04:31;146691.28;;;20.66;30.72
5877;BME280;2964;42.144;24.730;2023-02-19T13:07:04;146673.56;;;20.58;30.52
5877;BME280;2964;42.144;24.730;2023-02-19T13:09:35;146636.81;;;20.43;30.81
5877;BME280;2964;42.144;24.730;2023-02-19T13:12:07;146683.72;;;20.62;31.37
5877;BME280;2964;42.144;24.730;2023-02-19T13:14:41;146697.66;;;20.68;31.49
5877;BME280;2964;42.144;24.730;2023-02-19T13:17:18;146724.25;;;20.79;31.22
5877;BME280;2964;42.144;24.730;2023-02-19T13:19:48;146676.06;;;20.59;31.52
5877;BME280;2964;42.144;24.730;2023-02-19T13:22:23;146678.66;;;20.60;31.67
5877;BME280;2964;42.144;24.730;2023-02-19T13:25:08;146636.81;;;20.43;31.67
5877;BME280;2964;42.144;24.730;2023-02-19T13:27:47;146640.63;;;20.45;32.24